Time;durP1;ratioP1;P1;durP2;ratioP2;P2;SDS_P1;SDS_P2;PMS_P1;PMS_P2;Temp;Humidity;BMP_temperature;BMP_pressure;BME280_temperature;BME280_humidity;BME280_pressure;Samples;Min_cycle;Max_cycle;Signal;HPM_P1;HPM_P2
2021/12/19 00:00:34;;;;;;;18.53;7.93;;;7.60;99.90;;;;;;4969576;28;20042;-30
2021/12/19 00:11:02;;;;;;;15.93;7.77;;;7.60;99.90;;;;;;4966414;28;20406;-30
2021/12/19 00:13:28;;;;;;;18.77;8.07;;;7.60;99.90;;;;;;4965039;28;20035;-30
2021/12/19 00:15:55;;;;;;;11.63;6.07;;;7.60;99.90;;;;;;4967970;28;20057;-30
2021/12/19 00:18:21;;;;;;;12.73;5.40;;;7.60;99.90;;;;;;4933073;28;20042;-30
2021/12/19 00:20:47;;;;;;;6.13;3.83;;;7.60;99.90;;;;;;4960121;28;20062;-30
2021/12/19 00:23:14;;;;;;;8.80;3.53;;;7.60;99.90;;;;;;4987432;28;20050;-30
2021/12/19 00:25:40;;;;;;;7.20;2.50;;;7.50;99.90;;;;;;4985406;28;20071;-30
2021/12/19 00:28:06;;;;;;;5.17;1.57;;;7.50;99.90;;;;;;4969700;28;20047;-30
2021/12/19 00:30:32;;;;;;;6.00;1.33;;;7.50;99.90;;;;;;4984906;28;20050;-29
2021/12/19 00:32:58;;;;;;;4.10;0.80;;;7.50;99.90;;;;;;4984266;28;20149;-30
2021/12/19 00:35:24;;;;;;;4.47;1.50;;;7.60;99.90;;;;;;4985013;28;20129;-30
2021/12/19 00:37:50;;;;;;;5.53;1.07;;;7.50;99.90;;;;;;4970691;28;20077;-30
2021/12/19 00:40:16;;;;;;;10.40;1.50;;;7.50;99.90;;;;;;4988046;28;20121;-30
2021/12/19 00:42:42;;;;;;;4.97;1.50;;;7.50;99.90;;;;;;4984412;28;20579;-30
2021/12/19 00:45:27;;;;;;;3.57;0.83;;;7.50;99.90;;;;;;4966848;28;20073;-30
2021/12/19 00:47:53;;;;;;;2.80;1.00;;;7.50;99.90;;;;;;4970828;28;20047;-29
2021/12/19 00:50:19;;;;;;;3.93;1.00;;;7.50;99.90;;;;;;4968151;28;20058;-30
2021/12/19 00:52:48;;;;;;;5.17;1.10;;;7.50;99.90;;;;;;4984331;28;20046;-30
2021/12/19 00:55:16;;;;;;;2.27;0.97;;;7.40;99.90;;;;;;4984980;28;20038;-30
2021/12/19 00:57:42;;;;;;;2.60;0.63;;;7.50;99.90;;;;;;4970162;28;20046;-30
2021/12/19 01:00:12;;;;;;;4.83;0.60;;;7.50;99.90;;;;;;4990262;28;20045;-30
2021/12/19 01:02:39;;;;;;;2.73;0.47;;;7.40;99.90;;;;;;4986194;28;20038;-30
2021/12/19 01:05:05;;;;;;;2.50;0.40;;;7.40;99.90;;;;;;4990545;28;20438;-30
2021/12/19 01:07:30;;;;;;;2.70;0.47;;;7.40;99.90;;;;;;4972823;28;20057;-30
2021/12/19 01:09:56;;;;;;;3.33;0.40;;;7.40;99.90;;;;;;4988402;28;20061;-30
2021/12/19 01:12:23;;;;;;;4.30;0.80;;;7.30;99.90;;;;;;4987415;28;20054;-30
2021/12/19 01:14:49;;;;;;;3.07;0.67;;;7.40;99.90;;;;;;4989726;28;20086;-30
2021/12/19 01:17:15;;;;;;;4.03;0.60;;;7.40;99.90;;;;;;4973127;28;20042;-30
2021/12/19 01:19:41;;;;;;;1.93;0.53;;;7.40;99.90;;;;;;4986209;28;20774;-30
2021/12/19 01:22:07;;;;;;;5.33;0.50;;;7.40;99.90;;;;;;4968272;28;20050;-30
2021/12/19 01:24:33;;;;;;;3.07;0.50;;;7.40;99.90;;;;;;4970289;28;20571;-29
2021/12/19 01:26:59;;;;;;;3.20;0.70;;;7.30;99.90;;;;;;4953887;28;20058;-30
2021/12/19 01:29:24;;;;;;;1.90;0.47;;;7.40;99.90;;;;;;4967140;28;20047;-30
2021/12/19 01:31:50;;;;;;;3.30;0.40;;;7.30;99.90;;;;;;4970942;28;20138;-30
2021/12/19 01:34:16;;;;;;;1.50;0.60;;;7.30;99.90;;;;;;4967795;28;20311;-29
2021/12/19 01:36:43;;;;;;;3.27;0.60;;;7.30;99.90;;;;;;4957581;28;20569;-29
2021/12/19 01:39:10;;;;;;;4.67;1.03;;;7.30;99.90;;;;;;4968619;28;20126;-30
2021/12/19 01:41:45;;;;;;;4.80;0.60;;;7.30;99.90;;;;;;4968832;28;20043;-30
2021/12/19 01:44:11;;;;;;;3.20;0.93;;;7.30;99.90;;;;;;4967960;28;20057;-30
2021/12/19 01:46:37;;;;;;;2.37;0.80;;;7.30;99.90;;;;;;4955289;28;20043;-30
2021/12/19 01:49:04;;;;;;;4.13;0.97;;;7.30;99.90;;;;;;4965931;28;20049;-30
2021/12/19 01:51:30;;;;;;;5.10;0.90;;;7.30;99.90;;;;;;4968886;28;20043;-29
2021/12/19 01:53:56;;;;;;;4.40;1.00;;;7.30;99.90;;;;;;4949993;28;20337;-30
2021/12/19 01:56:22;;;;;;;7.00;1.13;;;7.30;99.90;;;;;;4957562;28;20077;-30
2021/12/19 01:58:48;;;;;;;5.07;1.80;;;7.30;99.90;;;;;;4967822;28;20054;-30
2021/12/19 02:01:14;;;;;;;4.33;1.60;;;7.30;99.90;;;;;;4973115;28;20041;-29
2021/12/19 02:03:40;;;;;;;5.50;1.70;;;7.30;99.90;;;;;;4968036;28;20039;-30
2021/12/19 02:06:05;;;;;;;7.67;1.27;;;7.30;99.90;;;;;;4967163;28;20809;-30
2021/12/19 02:08:31;;;;;;;4.73;0.97;;;7.40;99.90;;;;;;4938734;28;20070;-30
2021/12/19 02:10:57;;;;;;;3.63;0.63;;;7.40;99.90;;;;;;4968978;28;20132;-30
2021/12/19 02:13:23;;;;;;;3.87;0.90;;;7.40;99.90;;;;;;4969072;28;20054;-29
2021/12/19 02:15:48;;;;;;;5.47;0.90;;;7.20;99.90;;;;;;4969202;28;20368;-30
2021/12/19 02:18:18;;;;;;;3.67;0.53;;;7.20;99.90;;;;;;4954603;28;20403;-30
2021/12/19 02:20:56;;;;;;;3.07;0.37;;;7.20;99.90;;;;;;4976628;28;20069;-30
2021/12/19 02:23:24;;;;;;;4.27;0.50;;;7.20;99.90;;;;;;4987272;28;20081;-30
2021/12/19 02:25:51;;;;;;;2.57;0.50;;;7.10;99.90;;;;;;4987207;28;20050;-30
2021/12/19 02:28:18;;;;;;;4.87;0.53;;;7.10;99.90;;;;;;4973559;28;20050;-29
2021/12/19 02:30:44;;;;;;;3.73;0.73;;;7.10;99.90;;;;;;4987393;28;20089;-30
2021/12/19 02:33:15;;;;;;;6.10;1.03;;;7.30;99.90;;;;;;4987193;28;20481;-30
2021/12/19 02:35:47;;;;;;;5.28;0.82;;;7.10;99.90;;;;;;4987258;28;20430;-30
2021/12/19 02:48:56;;;;;;;2.07;0.30;;;7.10;99.90;;;;;;4983393;28;20422;-30
2021/12/19 02:51:23;;;;;;;2.13;0.50;;;7.00;99.90;;;;;;4985325;28;20050;-30
2021/12/19 02:53:49;;;;;;;2.40;0.50;;;7.10;99.90;;;;;;4985965;28;20414;-30
2021/12/19 02:56:14;;;;;;;1.70;0.30;;;7.00;99.90;;;;;;4977580;28;20038;-30
2021/12/19 02:58:43;;;;;;;5.07;0.53;;;7.00;99.90;;;;;;4986646;28;20200;-30
2021/12/19 03:01:17;;;;;;;4.77;0.40;;;7.00;99.90;;;;;;4991216;28;20046;-30
2021/12/19 03:03:43;;;;;;;5.27;0.70;;;7.00;99.90;;;;;;4986840;28;20364;-29
2021/12/19 03:06:09;;;;;;;4.17;0.70;;;7.00;99.90;;;;;;4983776;28;20291;-30
2021/12/19 03:08:36;;;;;;;8.23;0.73;;;7.00;99.90;;;;;;4978744;28;20049;-30
2021/12/19 03:18:43;;;;;;;2.63;0.90;;;7.00;99.90;;;;;;4982013;28;20457;-29
2021/12/19 03:21:13;;;;;;;4.27;0.70;;;6.90;99.90;;;;;;4972665;28;20054;-30
2021/12/19 03:23:39;;;;;;;5.07;0.97;;;6.90;99.90;;;;;;4966509;28;20047;-30
2021/12/19 03:26:05;;;;;;;3.23;0.93;;;7.00;99.90;;;;;;4965933;28;20299;-30
2021/12/19 03:28:31;;;;;;;7.70;1.40;;;6.90;99.90;;;;;;4936825;28;20043;-30
2021/12/19 03:30:56;;;;;;;5.77;1.17;;;6.80;99.90;;;;;;4967198;28;20129;-30
2021/12/19 03:33:22;;;;;;;5.30;1.23;;;6.80;99.90;;;;;;4966630;28;20510;-30
2021/12/19 03:35:48;;;;;;;5.60;0.90;;;6.90;99.90;;;;;;4968029;28;20126;-30
2021/12/19 03:38:15;;;;;;;4.53;0.77;;;6.80;99.90;;;;;;4950135;28;20043;-30
2021/12/19 03:40:44;;;;;;;7.57;0.90;;;6.90;99.90;;;;;;4966674;28;20348;-30
2021/12/19 03:43:16;;;;;;;3.70;0.40;;;6.80;99.90;;;;;;4968230;28;20474;-30
2021/12/19 03:45:44;;;;;;;9.47;0.47;;;6.80;99.90;;;;;;4966930;28;20086;-30
2021/12/19 03:48:13;;;;;;;4.53;0.40;;;6.80;99.90;;;;;;4951241;28;20091;-30
2021/12/19 03:50:44;;;;;;;4.97;0.47;;;6.80;99.90;;;;;;4966532;28;20034;-29
2021/12/19 03:53:11;;;;;;;4.97;0.70;;;6.90;99.90;;;;;;4965555;28;20046;-30
2021/12/19 03:55:37;;;;;;;3.97;0.70;;;6.80;99.90;;;;;;4966229;28;20541;-30
2021/12/19 03:58:03;;;;;;;14.10;1.07;;;6.90;99.90;;;;;;4950994;28;20105;-31
2021/12/19 04:00:31;;;;;;;6.60;1.10;;;6.90;99.90;;;;;;4971051;28;20038;-30
2021/12/19 04:03:04;;;;;;;7.90;1.37;;;6.90;99.90;;;;;;4965271;28;20057;-30
2021/12/19 04:05:31;;;;;;;8.30;2.20;;;6.90;99.90;;;;;;4970027;28;20430;-30
2021/12/19 04:07:57;;;;;;;13.87;2.67;;;6.90;99.90;;;;;;4950709;28;20101;-30
2021/12/19 04:10:24;;;;;;;12.53;2.80;;;6.90;99.90;;;;;;4967059;28;20046;-30
2021/12/19 04:12:51;;;;;;;15.07;2.67;;;6.90;99.90;;;;;;4964064;28;20459;-30
2021/12/19 04:15:17;;;;;;;12.90;2.60;;;6.90;99.90;;;;;;4965949;28;20078;-30
2021/12/19 04:17:43;;;;;;;17.00;3.50;;;6.90;99.90;;;;;;4951542;28;20085;-30
2021/12/19 04:20:09;;;;;;;10.87;2.77;;;6.90;99.90;;;;;;4968738;28;20050;-30
2021/12/19 04:22:35;;;;;;;15.57;3.20;;;6.90;99.90;;;;;;4965282;28;20345;-30
2021/12/19 04:25:01;;;;;;;18.50;3.50;;;6.90;99.90;;;;;;4964920;28;20055;-30
2021/12/19 04:27:26;;;;;;;12.57;3.33;;;6.90;99.90;;;;;;4933247;28;20050;-30
2021/12/19 04:29:54;;;;;;;15.27;3.20;;;7.00;99.90;;;;;;4968751;28;20049;-30
2021/12/19 04:32:25;;;;;;;16.07;3.60;;;7.00;99.90;;;;;;4964758;28;20402;-30
2021/12/19 04:34:51;;;;;;;16.02;4.00;;;7.00;99.90;;;;;;4966288;28;20051;-30
2021/12/19 04:40:26;;;;;;;20.52;4.13;;;7.00;99.90;;;;;;4906493;29;20051;-30
2021/12/19 05:14:31;;;;;;;28.20;8.67;;;7.00;99.90;;;;;;4965899;28;20416;-30
2021/12/19 05:17:04;;;;;;;22.77;9.40;;;7.00;99.90;;;;;;4950517;28;20066;-30
2021/12/19 05:19:43;;;;;;;30.07;10.17;;;7.00;99.90;;;;;;4964837;28;20062;-30
2021/12/19 05:22:09;;;;;;;29.43;10.13;;;7.10;99.90;;;;;;4949859;28;20129;-30
2021/12/19 05:27:00;;;;;;;27.93;9.73;;;7.10;99.90;;;;;;4951817;28;20043;-30
2021/12/19 05:29:26;;;;;;;19.63;7.83;;;7.00;99.90;;;;;;4966851;28;20354;-30
2021/12/19 05:31:51;;;;;;;25.83;8.00;;;7.10;99.90;;;;;;4964020;28;20086;-30
2021/12/19 05:34:17;;;;;;;26.57;7.67;;;7.10;99.90;;;;;;4967064;28;20121;-30
2021/12/19 05:47:25;;;;;;;29.73;8.13;;;7.10;99.90;;;;;;4950524;28;20047;-30
2021/12/19 05:49:51;;;;;;;24.13;8.03;;;7.10;99.90;;;;;;4952189;28;20100;-30
2021/12/19 05:52:17;;;;;;;21.07;7.10;;;7.10;99.90;;;;;;4967817;28;20038;-30
2021/12/19 05:54:43;;;;;;;21.97;6.97;;;7.20;99.90;;;;;;4971187;28;20081;-30
2021/12/19 05:57:09;;;;;;;20.07;6.23;;;7.10;99.90;;;;;;4953969;28;20042;-30
2021/12/19 05:59:35;;;;;;;20.13;5.97;;;7.10;99.90;;;;;;4975162;28;20038;-30
2021/12/19 06:02:02;;;;;;;19.27;6.13;;;7.00;99.90;;;;;;4971663;28;20097;-30
2021/12/19 06:04:27;;;;;;;16.70;5.73;;;7.10;99.90;;;;;;4950790;28;20414;-30
2021/12/19 06:06:53;;;;;;;18.70;5.97;;;7.10;99.90;;;;;;4955299;28;20042;-29
2021/12/19 06:09:19;;;;;;;19.43;5.87;;;7.10;99.90;;;;;;4971043;28;20038;-30
2021/12/19 06:11:45;;;;;;;14.97;5.90;;;7.10;99.90;;;;;;4968198;28;20109;-30
2021/12/19 06:14:10;;;;;;;19.37;6.30;;;7.20;99.90;;;;;;4969567;28;20053;-30
2021/12/19 06:16:36;;;;;;;23.93;6.90;;;7.10;99.90;;;;;;4956996;28;20077;-30
2021/12/19 06:19:02;;;;;;;21.13;7.20;;;7.10;99.90;;;;;;4966583;28;20043;-30
2021/12/19 06:21:28;;;;;;;24.90;7.17;;;7.00;99.90;;;;;;4970428;28;20062;-30
2021/12/19 06:23:53;;;;;;;28.03;7.47;;;7.10;99.90;;;;;;4968135;28;20101;-30
2021/12/19 06:26:19;;;;;;;22.00;7.23;;;7.10;99.90;;;;;;4958732;28;20513;-30
2021/12/19 06:28:45;;;;;;;25.03;7.60;;;7.10;99.90;;;;;;4963457;28;20515;-30
2021/12/19 06:31:10;;;;;;;23.27;6.43;;;7.10;99.90;;;;;;4950581;28;20529;-30
2021/12/19 06:33:36;;;;;;;17.77;5.80;;;7.10;99.90;;;;;;4966696;28;20085;-30
2021/12/19 06:36:03;;;;;;;15.07;4.77;;;7.10;99.90;;;;;;4968051;28;20049;-30
2021/12/19 06:38:28;;;;;;;14.13;4.13;;;7.10;99.90;;;;;;4953389;28;20046;-30
2021/12/19 06:40:54;;;;;;;15.83;3.33;;;7.10;99.90;;;;;;4963757;28;20047;-30
2021/12/19 06:43:20;;;;;;;10.20;2.87;;;7.10;99.90;;;;;;4964132;28;20055;-30
2021/12/19 06:45:47;;;;;;;13.90;3.20;;;7.10;99.90;;;;;;4969940;28;20047;-30
2021/12/19 06:48:13;;;;;;;12.87;3.23;;;7.10;99.90;;;;;;4952687;28;20047;-30
2021/12/19 06:50:39;;;;;;;10.33;3.00;;;7.10;99.90;;;;;;4969093;28;20043;-30
2021/12/19 06:53:04;;;;;;;16.20;3.53;;;7.00;99.90;;;;;;4983033;28;20491;-30
2021/12/19 06:55:30;;;;;;;16.13;3.70;;;7.10;99.90;;;;;;4966786;28;20042;-30
2021/12/19 06:57:56;;;;;;;13.63;3.30;;;7.10;99.90;;;;;;4952640;28;20361;-30
2021/12/19 07:00:24;;;;;;;11.83;3.20;;;7.00;99.90;;;;;;4974194;28;20098;-30
2021/12/19 07:02:52;;;;;;;14.07;3.40;;;7.00;99.90;;;;;;4966477;28;20043;-30
2021/12/19 07:05:18;;;;;;;14.07;3.40;;;7.10;99.90;;;;;;4969961;28;20046;-30
2021/12/19 07:07:43;;;;;;;14.47;3.30;;;7.10;99.90;;;;;;4955151;28;20435;-30
2021/12/19 07:10:09;;;;;;;16.70;3.47;;;7.20;99.90;;;;;;4952210;28;20049;-30
2021/12/19 07:12:35;;;;;;;13.47;3.77;;;7.10;99.90;;;;;;4965823;28;20513;-30
2021/12/19 07:15:02;;;;;;;19.40;3.63;;;7.10;99.90;;;;;;4967580;28;20039;-30
2021/12/19 07:17:28;;;;;;;15.20;3.00;;;7.10;99.90;;;;;;4953761;28;20194;-30
2021/12/19 07:19:54;;;;;;;16.00;3.50;;;7.10;99.90;;;;;;4966427;28;20106;-30
2021/12/19 07:22:20;;;;;;;15.93;3.50;;;7.10;99.90;;;;;;4966505;28;20121;-30
2021/12/19 07:24:46;;;;;;;22.00;3.90;;;7.10;99.90;;;;;;4967052;28;20403;-30
2021/12/19 07:27:15;;;;;;;19.20;3.70;;;7.10;99.90;;;;;;4952914;28;20054;-30
2021/12/19 07:29:41;;;;;;;17.50;3.37;;;7.10;99.90;;;;;;4965778;28;20335;-30
2021/12/19 07:32:07;;;;;;;18.20;3.60;;;7.10;99.90;;;;;;4963192;28;20340;-30
2021/12/19 07:34:35;;;;;;;21.00;4.40;;;7.10;99.90;;;;;;4966216;28;20568;-30
2021/12/19 07:37:02;;;;;;;17.03;3.73;;;7.10;99.90;;;;;;4954283;28;20467;-30
2021/12/19 07:42:04;;;;;;;17.13;3.77;;;7.20;99.90;;;;;;4966771;28;20129;-30
2021/12/19 07:44:30;;;;;;;15.45;3.03;;;7.10;99.90;;;;;;4964605;28;20203;-30
2021/12/19 07:46:56;;;;;;;16.87;3.53;;;7.20;99.90;;;;;;4935559;28;20050;-30
2021/12/19 07:49:22;;;;;;;19.30;3.97;;;7.10;99.90;;;;;;4947122;28;20133;-30
2021/12/19 07:51:47;;;;;;;13.93;3.37;;;7.10;99.90;;;;;;4966077;28;20045;-30
2021/12/19 07:54:13;;;;;;;20.80;4.27;;;7.20;99.90;;;;;;4963189;28;20493;-30
2021/12/19 07:56:39;;;;;;;20.87;4.27;;;7.20;99.90;;;;;;4951427;28;20410;-31
2021/12/19 07:59:05;;;;;;;21.53;4.57;;;7.20;99.90;;;;;;4949394;28;20410;-30
2021/12/19 08:01:31;;;;;;;17.43;3.80;;;7.20;99.90;;;;;;4968242;28;20054;-30
2021/12/19 08:03:57;;;;;;;22.60;4.70;;;7.30;99.90;;;;;;4965681;28;20050;-30
2021/12/19 08:06:22;;;;;;;20.93;4.27;;;7.20;99.90;;;;;;4954280;28;20050;-31
2021/12/19 08:08:52;;;;;;;14.83;3.70;;;7.20;99.90;;;;;;4962331;28;20047;-30
2021/12/19 08:14:04;;;;;;;19.90;4.10;;;7.20;99.90;;;;;;4966322;28;20046;-30
2021/12/19 08:16:30;;;;;;;17.33;3.73;;;7.20;99.90;;;;;;4952336;28;20090;-30
2021/12/19 08:18:56;;;;;;;15.27;3.63;;;7.20;99.90;;;;;;4963223;28;20459;-30
2021/12/19 08:21:22;;;;;;;15.93;3.30;;;7.20;99.90;;;;;;4947995;28;20061;-30
2021/12/19 08:23:47;;;;;;;22.63;4.13;;;7.20;99.90;;;;;;4967267;28;20047;-30
2021/12/19 08:26:13;;;;;;;17.47;3.90;;;7.20;99.90;;;;;;4958374;28;20070;-30
2021/12/19 08:28:39;;;;;;;16.97;3.97;;;7.20;99.90;;;;;;4960908;28;20150;-30
2021/12/19 08:31:05;;;;;;;20.07;4.50;;;7.30;99.90;;;;;;4966638;28;20172;-30
2021/12/19 08:33:32;;;;;;;18.83;3.93;;;7.20;99.90;;;;;;4967877;28;20051;-30
2021/12/19 08:35:59;;;;;;;13.17;3.80;;;7.20;99.90;;;;;;4967912;28;20133;-30
2021/12/19 08:38:28;;;;;;;16.50;4.10;;;7.20;99.90;;;;;;4952666;28;20046;-30
2021/12/19 08:40:55;;;;;;;18.80;3.50;;;7.20;99.90;;;;;;4968453;28;20126;-30
2021/12/19 08:43:21;;;;;;;16.40;3.33;;;7.20;99.90;;;;;;4964805;28;20085;-30
2021/12/19 08:45:47;;;;;;;17.07;3.30;;;7.20;99.90;;;;;;4965516;28;20050;-30
2021/12/19 08:48:13;;;;;;;18.20;3.80;;;7.20;99.90;;;;;;4953603;28;20046;-30
2021/12/19 08:50:40;;;;;;;17.93;3.60;;;7.20;99.90;;;;;;4966524;28;20510;-30
2021/12/19 08:53:06;;;;;;;16.37;3.00;;;7.20;99.90;;;;;;4964500;28;20039;-30
2021/12/19 08:55:33;;;;;;;12.30;3.17;;;7.20;99.90;;;;;;4976200;28;20547;-30
2021/12/19 08:57:58;;;;;;;14.80;3.20;;;7.20;99.90;;;;;;4962124;28;20049;-30
2021/12/19 09:00:24;;;;;;;14.93;3.47;;;7.20;99.90;;;;;;4979653;28;20039;-29
2021/12/19 09:02:53;;;;;;;16.03;2.80;;;7.20;99.90;;;;;;4978164;28;20397;-30
2021/12/19 09:05:20;;;;;;;12.73;2.67;;;7.20;99.90;;;;;;4966766;28;20117;-30
2021/12/19 09:07:46;;;;;;;15.80;3.30;;;7.30;99.90;;;;;;4965129;28;20129;-30
2021/12/19 09:10:12;;;;;;;15.93;3.10;;;7.30;99.90;;;;;;4981250;28;20082;-30
2021/12/19 09:12:37;;;;;;;17.03;2.93;;;7.30;99.90;;;;;;4984016;28;20085;-30
2021/12/19 09:15:05;;;;;;;19.87;3.13;;;7.30;99.90;;;;;;4984474;28;20406;-30
2021/12/19 09:17:31;;;;;;;15.47;3.37;;;7.30;99.90;;;;;;4965097;28;20062;-30
2021/12/19 09:19:57;;;;;;;17.47;3.40;;;7.30;99.90;;;;;;4984595;28;20170;-30
2021/12/19 09:22:22;;;;;;;17.77;3.57;;;7.30;99.90;;;;;;4984127;28;20054;-30
2021/12/19 09:24:48;;;;;;;15.33;3.37;;;7.30;99.90;;;;;;4988076;28;20042;-30
2021/12/19 09:27:14;;;;;;;16.13;3.77;;;7.30;99.90;;;;;;4966666;28;20194;-30
2021/12/19 09:29:40;;;;;;;22.70;3.77;;;7.30;99.90;;;;;;4988423;28;20030;-30
2021/12/19 09:32:06;;;;;;;20.33;3.60;;;7.50;99.90;;;;;;4962855;28;20057;-30
2021/12/19 09:34:33;;;;;;;10.80;3.33;;;7.40;99.90;;;;;;4972139;28;20042;-29
2021/12/19 09:37:00;;;;;;;17.90;3.30;;;7.40;99.90;;;;;;4966698;28;20057;-30
2021/12/19 09:39:26;;;;;;;17.90;3.63;;;7.40;99.90;;;;;;4969786;28;20101;-30
2021/12/19 09:41:59;;;;;;;17.77;4.00;;;7.40;99.90;;;;;;4973371;28;20503;-30
2021/12/19 09:44:25;;;;;;;20.30;4.70;;;7.40;99.90;;;;;;4954230;28;20096;-30
2021/12/19 09:46:51;;;;;;;23.17;4.57;;;7.40;99.90;;;;;;4960135;28;20043;-31
2021/12/19 09:49:19;;;;;;;17.90;4.03;;;7.40;99.90;;;;;;4967678;28;20242;-30
2021/12/19 09:51:46;;;;;;;21.93;5.13;;;7.40;99.90;;;;;;4971153;28;20052;-30
2021/12/19 09:54:12;;;;;;;25.73;5.23;;;7.40;99.90;;;;;;4971218;28;20458;-30
2021/12/19 09:56:39;;;;;;;22.20;4.73;;;7.40;99.90;;;;;;4956522;28;20031;-30
2021/12/19 09:59:17;;;;;;;21.80;4.93;;;7.40;99.90;;;;;;4970519;28;20093;-30
2021/12/19 10:01:43;;;;;;;23.07;4.97;;;7.40;99.90;;;;;;4973309;28;20078;-30
2021/12/19 10:04:28;;;;;;;21.30;4.37;;;7.40;99.90;;;;;;4971858;28;20057;-31
2021/12/19 10:07:10;;;;;;;21.57;4.67;;;7.40;99.90;;;;;;4940751;28;20151;-30
2021/12/19 10:09:38;;;;;;;25.93;5.07;;;7.40;99.90;;;;;;4971474;28;20052;-30
2021/12/19 10:15:05;;;;;;;20.87;4.20;;;7.50;99.90;;;;;;4970537;28;20344;-30
2021/12/19 10:17:31;;;;;;;;;;;7.50;99.90;;;;;;4961475;28;20651;-30
2021/12/19 10:20:03;;;;;;;23.80;3.60;;;7.50;99.90;;;;;;4968481;28;19930;-30
2021/12/19 10:22:32;;;;;;;14.10;3.33;;;7.40;99.90;;;;;;4969078;28;20035;-30
2021/12/19 10:25:27;;;;;;;16.33;3.93;;;7.60;99.90;;;;;;4969632;28;20051;-30
2021/12/19 10:27:56;;;;;;;21.07;3.67;;;7.40;99.90;;;;;;4946803;28;20502;-30
2021/12/19 10:30:34;;;;;;;20.30;3.73;;;7.40;99.90;;;;;;4968606;28;20133;-30
2021/12/19 10:33:03;;;;;;;13.03;3.53;;;7.50;99.90;;;;;;4967602;28;20035;-30
2021/12/19 10:35:34;;;;;;;17.90;3.30;;;7.50;99.90;;;;;;4972614;28;20406;-30
2021/12/19 10:38:03;;;;;;;16.45;3.58;;;7.40;99.90;;;;;;4955984;28;20042;-30
2021/12/19 10:40:29;;;;;;;20.63;3.77;;;7.50;99.90;;;;;;4974943;28;20042;-30
2021/12/19 10:43:00;;;;;;;17.20;3.43;;;7.50;99.90;;;;;;4969008;28;20406;-30
2021/12/19 10:45:49;;;;;;;25.77;4.07;;;7.50;99.90;;;;;;4972735;28;20050;-30
2021/12/19 10:48:22;;;;;;;23.20;3.67;;;7.50;99.90;;;;;;4939399;28;20234;-30
2021/12/19 10:50:59;;;;;;;23.20;3.77;;;7.50;99.90;;;;;;4971023;28;20073;-30
2021/12/19 10:53:37;;;;;;;21.47;3.83;;;7.50;99.90;;;;;;4949892;28;20113;-30
2021/12/19 10:56:08;;;;;;;25.23;3.77;;;7.50;99.90;;;;;;4934187;28;20050;-30
2021/12/19 10:58:38;;;;;;;23.45;3.75;;;7.60;99.90;;;;;;4958793;28;20096;-30
2021/12/19 11:01:17;;;;;;;17.97;3.77;;;7.50;99.90;;;;;;4971643;28;20078;-31
2021/12/19 11:03:51;;;;;;;23.40;3.30;;;7.50;99.90;;;;;;4968168;28;20054;-30
2021/12/19 11:06:26;;;;;;;16.80;4.00;;;7.50;99.90;;;;;;4958877;28;20506;-30
2021/12/19 11:08:53;;;;;;;19.17;4.00;;;7.50;99.90;;;;;;4964521;28;20113;-30
2021/12/19 11:11:43;;;;;;;19.70;3.70;;;7.60;99.90;;;;;;4950744;28;20038;-30
2021/12/19 11:14:12;;;;;;;19.40;3.97;;;7.60;99.90;;;;;;4968288;28;20055;-30
2021/12/19 11:16:38;;;;;;;23.40;3.90;;;7.60;99.90;;;;;;4957034;28;20133;-30
2021/12/19 11:19:04;;;;;;;24.93;4.17;;;7.60;99.90;;;;;;4965307;28;20130;-30
2021/12/19 11:21:34;;;;;;;23.17;4.50;;;7.60;99.90;;;;;;4967022;28;20093;-30
2021/12/19 11:24:05;;;;;;;19.43;3.70;;;7.60;99.90;;;;;;4968275;28;20411;-30
2021/12/19 11:26:31;;;;;;;;;;;7.60;99.90;;;;;;4956961;28;20045;-31
2021/12/19 11:28:57;;;;;;;18.30;3.87;;;7.60;99.90;;;;;;4965094;28;19922;-30
2021/12/19 11:31:27;;;;;;;23.40;3.80;;;7.60;99.90;;;;;;4967119;28;20049;-30
2021/12/19 11:34:24;;;;;;;25.30;4.67;;;7.60;99.90;;;;;;4964749;28;20419;-30
2021/12/19 11:37:01;;;;;;;24.97;4.77;;;7.60;99.90;;;;;;4956652;28;20619;-30
2021/12/19 11:39:31;;;;;;;24.07;4.30;;;7.70;99.90;;;;;;4968816;28;20051;-30
2021/12/19 11:42:04;;;;;;;23.80;4.13;;;7.70;99.90;;;;;;4969542;28;20081;-30
2021/12/19 11:45:21;;;;;;;21.37;4.27;;;7.70;99.90;;;;;;4966000;28;20096;-30
2021/12/19 11:47:52;;;;;;;25.97;4.57;;;7.70;99.90;;;;;;4953851;28;20068;-30
2021/12/19 11:50:22;;;;;;;29.83;4.85;;;7.70;99.90;;;;;;4966778;28;20051;-30
2021/12/19 11:52:51;;;;;;;18.90;4.47;;;7.70;99.90;;;;;;4967106;28;20094;-30
2021/12/19 11:55:30;;;;;;;24.43;4.03;;;7.80;99.90;;;;;;4965043;28;20536;-30
2021/12/19 11:58:08;;;;;;;31.73;4.70;;;7.80;99.90;;;;;;4934111;28;20129;-30
2021/12/19 12:00:38;;;;;;;22.70;5.13;;;7.80;99.90;;;;;;4970896;28;20052;-30
2021/12/19 12:03:13;;;;;;;24.80;4.90;;;7.80;99.90;;;;;;4965611;28;20562;-30
2021/12/19 12:05:50;;;;;;;26.07;4.67;;;7.80;99.90;;;;;;4970238;28;20089;-30
2021/12/19 12:08:23;;;;;;;22.17;4.07;;;7.80;99.90;;;;;;4951278;28;20538;-30
2021/12/19 12:10:53;;;;;;;17.20;4.10;;;7.80;99.90;;;;;;4968516;28;20450;-30
2021/12/19 12:13:33;;;;;;;28.10;4.90;;;7.80;99.90;;;;;;4965703;28;20042;-30
2021/12/19 12:16:33;;;;;;;24.77;4.90;;;7.90;99.90;;;;;;4971159;28;20383;-30
2021/12/19 12:19:05;;;;;;;20.53;4.83;;;7.80;99.90;;;;;;4959301;28;20058;-30
2021/12/19 12:21:42;;;;;;;23.03;3.67;;;7.80;99.90;;;;;;4965874;28;20196;-30
2021/12/19 12:24:11;;;;;;;26.63;4.13;;;7.80;99.90;;;;;;4967365;28;20665;-30
2021/12/19 12:27:05;;;;;;;21.90;3.97;;;7.90;99.90;;;;;;4956361;28;20053;-30
2021/12/19 12:29:32;;;;;;;20.57;4.37;;;7.90;99.90;;;;;;4963360;28;20054;-30
2021/12/19 12:31:58;;;;;;;18.67;4.07;;;7.90;99.90;;;;;;4968964;28;20069;-30
2021/12/19 12:34:24;;;;;;;27.07;4.57;;;7.90;99.90;;;;;;4965610;28;20486;-30
2021/12/19 12:36:51;;;;;;;26.87;4.83;;;7.90;99.90;;;;;;4950519;28;20488;-30
2021/12/19 12:39:22;;;;;;;25.13;5.07;;;7.90;99.90;;;;;;4968086;28;20090;-30
2021/12/19 12:41:59;;;;;;;23.13;4.17;;;7.90;99.90;;;;;;4964385;28;20059;-30
2021/12/19 12:44:25;;;;;;;21.40;4.20;;;7.90;99.90;;;;;;4965746;28;20096;-31
2021/12/19 12:46:51;;;;;;;22.13;3.80;;;7.90;99.90;;;;;;4954525;28;20422;-30
2021/12/19 12:49:24;;;;;;;23.70;4.17;;;7.80;99.90;;;;;;4947514;28;20105;-30
2021/12/19 12:52:05;;;;;;;20.43;3.33;;;7.90;99.90;;;;;;4966160;28;20035;-30
2021/12/19 12:54:36;;;;;;;19.05;3.42;;;7.90;99.90;;;;;;4965331;28;20043;-30
2021/12/19 12:57:08;;;;;;;17.50;3.13;;;7.90;99.90;;;;;;4951943;28;20118;-30
2021/12/19 12:59:38;;;;;;;18.53;3.77;;;7.90;99.90;;;;;;4968819;28;20047;-30
2021/12/19 13:02:20;;;;;;;22.50;3.33;;;7.90;99.90;;;;;;4972938;28;20043;-30
2021/12/19 13:04:48;;;;;;;19.83;3.17;;;7.90;99.90;;;;;;4973671;28;20069;-30
2021/12/19 13:07:16;;;;;;;23.00;4.07;;;7.90;99.90;;;;;;4951830;28;20047;-30
2021/12/19 13:09:51;;;;;;;20.87;4.17;;;7.90;99.90;;;;;;4959525;28;20055;-30
2021/12/19 13:12:29;;;;;;;21.87;3.77;;;7.90;99.90;;;;;;4968518;28;20057;-30
2021/12/19 13:14:57;;;;;;;14.50;3.40;;;7.90;99.90;;;;;;4972164;28;20211;-30
2021/12/19 13:17:26;;;;;;;21.90;3.90;;;7.90;99.90;;;;;;4961750;28;21070;-30
2021/12/19 13:20:02;;;;;;;16.73;3.90;;;7.90;99.90;;;;;;4971527;28;20375;-31
2021/12/19 13:22:28;;;;;;;25.13;4.43;;;7.90;99.90;;;;;;4972499;28;20561;-30
2021/12/19 13:24:56;;;;;;;24.00;4.50;;;7.90;99.90;;;;;;4953259;28;20101;-30
2021/12/19 13:27:28;;;;;;;26.63;4.27;;;7.90;99.90;;;;;;4959551;28;20388;-30
2021/12/19 13:29:59;;;;;;;24.43;4.43;;;7.90;99.90;;;;;;4971960;28;20525;-31
2021/12/19 13:32:33;;;;;;;21.33;4.43;;;7.90;99.90;;;;;;4968802;28;20051;-30
2021/12/19 13:35:01;;;;;;;19.67;4.50;;;7.90;99.90;;;;;;4970687;28;20041;-30
2021/12/19 13:37:31;;;;;;;24.30;5.10;;;7.90;99.90;;;;;;4958279;28;20153;-30
2021/12/19 13:40:09;;;;;;;27.33;4.83;;;8.10;99.90;;;;;;4948354;28;20058;-30
2021/12/19 13:42:44;;;;;;;25.87;5.13;;;7.90;99.90;;;;;;4967439;28;20066;-30
2021/12/19 13:45:49;;;;;;;31.87;4.80;;;7.90;99.90;;;;;;4961268;28;20489;-30
2021/12/19 13:48:30;;;;;;;24.00;4.77;;;8.00;99.90;;;;;;4926720;28;20046;-31
2021/12/19 13:51:00;;;;;;;21.03;4.30;;;8.00;99.90;;;;;;4936370;28;20047;-30
2021/12/19 13:53:30;;;;;;;17.67;3.40;;;8.00;99.90;;;;;;4936336;28;20054;-30
2021/12/19 13:56:02;;;;;;;18.73;3.00;;;8.00;99.90;;;;;;4972870;28;20050;-31
2021/12/19 13:58:37;;;;;;;20.70;2.80;;;8.00;99.90;;;;;;4938375;28;20046;-30
2021/12/19 14:01:14;;;;;;;18.13;2.77;;;8.00;99.90;;;;;;4965266;28;20086;-30
2021/12/19 14:03:59;;;;;;;10.63;2.40;;;8.00;99.90;;;;;;4954935;28;20467;-30
2021/12/19 14:06:35;;;;;;;15.13;2.30;;;7.90;99.90;;;;;;4947164;28;20406;-30
2021/12/19 14:09:07;;;;;;;13.87;2.17;;;7.90;99.90;;;;;;4966960;28;20054;-30
2021/12/19 14:11:35;;;;;;;10.43;2.07;;;7.90;99.90;;;;;;4950438;28;20108;-30
2021/12/19 14:14:09;;;;;;;11.17;1.43;;;7.90;99.90;;;;;;4968715;28;20070;-30
2021/12/19 14:16:46;;;;;;;10.83;2.00;;;8.00;99.90;;;;;;4961557;28;20054;-30
2021/12/19 14:19:32;;;;;;;8.80;1.63;;;8.00;99.90;;;;;;4969058;28;20118;-30
2021/12/19 14:22:04;;;;;;;10.27;1.50;;;7.90;99.90;;;;;;4995586;28;20090;-30